Sliac, Slovakia

5:41 PM CEST on August 31, 2015 (GMT +0200)
Badin | | Change Station
CLOSE
Current Station
Personal Weather Station
Location: Badin, Banskobystricky kraj
Elevation: 1306 ft
Nearby Weather Stations

Elev 1306 ft 48.67 °N, 19.12 °E | Updated 21 seconds ago

Clear
Clear
90.0 °F
Feels Like 87 °F
N
4.0
Wind Variable Wind from South
Gusts 9.0 mph

Today
High -- | Low -- °F
--% Chance of Precip.
Yesterday
High -- | Low -- °F
Precip. -- in
5:58 AM 7:28 PM
Waning Gibbous, 95% visible
Pressure 29.98 in
Visibility -9999.0 miles
Clouds
Heat Index 87 °F
Dew Point 46 °F
Humidity 22%
Rainfall 0.00 in
Snow Depth Not available.
UV 0.0 out of 12
Pollen Not available.
Air Quality Not available.
Flu Activity Not available.
METAR LZZI 311500Z 21008KT 180V250 CAVOK 32/14 Q1015
Pressure 29.98 in
Visibility -9999.0 miles
Clouds
Heat Index 87 °F
Dew Point 46 °F
Humidity 22%
Rainfall 0.00 in
Snow Depth Not available.
UV 0.0 out of 12
Pollen Not available.
Air Quality Not available.
Flu Activity Not available.
METAR LZZI 311500Z 21008KT 180V250 CAVOK 32/14 Q1015

10-Day Weather Forecast

×

Almanac

Astronomy

Aug. 31, 2015 Rise Set
Actual Time
Civil Twilight
Nautical Twilight
Astronomical Twilight
Moon
Length of Visible Light
Length of Day
Tomorrow will be .
, % of the Moon is Illuminated

Today's Extremes

Country Highs Country Lows

Community

WunderPhotos

Upload Photos

1,851,282 photos uploaded!

WunderBlogs® & News

Nearby

Air Quality

  Air Quality AQ Index Pollutant
Not available.

Snow Depth

Station Depth Elevation

Earthquake Activity

City Distance Mag. Time & Date
Minimum magnitude displayed is 2.5.

Coastal Water Temperatures

Place Temperature

Stations

Nearby Weather Stations

Station Location Temp. Windchill Dew Point Humidity Wind Precip. Elev Updated Type